East Middlebury, Vermont
Current Conditions -  °F | °C
As of 9:35 AM on Tuesday 21 Oct 2014 (Local Time) from K6B0 Reporting Station
Drizzle Drizzle  
Wind Chill: 49°   Ceiling: 6000
Heat Index: 49°   Visibility: 10mi
Dew Point: 46°   Wind: 3mph
Humidity: 90%   Direction: 160°SSE
Pressure: 29.94"   Gusts: NA
Location:  43.97°N, 73.11°W
Report Text: K6B0 211335Z AUTO 16003KT 10SM DZ OVC060 09/08 A2994 RMK AO2 T00920076
Loading
Personal Weather Stations






























Interactive Weather Map
Tropical Storm Tracking
New forecast layout! Learn more

10-Day Weather Forecast

Advertisements
Track Severe Weather on mobile